sensor_id;sensor_type;location;lat;lon;timestamp;P1;durP1;ratioP1;P2;durP2;ratioP2
55202;SDS011;41077;52.956;6.796;2022-12-26T00:01:15;225.70;;;40.00;;
55202;SDS011;41077;52.956;6.796;2022-12-26T00:03:43;197.73;;;39.25;;
55202;SDS011;41077;52.956;6.796;2022-12-26T00:06:15;155.88;;;34.75;;
55202;SDS011;41077;52.956;6.796;2022-12-26T00:08:42;142.40;;;36.70;;
55202;SDS011;41077;52.956;6.796;2022-12-26T00:11:08;138.75;;;35.97;;
55202;SDS011;41077;52.956;6.796;2022-12-26T00:13:35;108.13;;;32.15;;
55202;SDS011;41077;52.956;6.796;2022-12-26T00:16:16;137.23;;;36.55;;
55202;SDS011;41077;52.956;6.796;2022-12-26T00:18:44;142.45;;;36.55;;
55202;SDS011;41077;52.956;6.796;2022-12-26T00:21:11;148.02;;;36.97;;
55202;SDS011;41077;52.956;6.796;2022-12-26T00:23:39;175.45;;;40.05;;
55202;SDS011;41077;52.956;6.796;2022-12-26T00:26:12;131.73;;;36.40;;
55202;SDS011;41077;52.956;6.796;2022-12-26T00:28:40;124.30;;;35.17;;
55202;SDS011;41077;52.956;6.796;2022-12-26T00:31:10;128.50;;;33.33;;
55202;SDS011;41077;52.956;6.796;2022-12-26T00:33:37;119.38;;;32.22;;
55202;SDS011;41077;52.956;6.796;2022-12-26T00:36:04;152.88;;;37.88;;
55202;SDS011;41077;52.956;6.796;2022-12-26T00:38:35;97.07;;;29.17;;
55202;SDS011;41077;52.956;6.796;2022-12-26T00:41:02;120.50;;;32.97;;
55202;SDS011;41077;52.956;6.796;2022-12-26T00:43:29;123.13;;;33.00;;
55202;SDS011;41077;52.956;6.796;2022-12-26T00:45:55;177.18;;;37.80;;
55202;SDS011;41077;52.956;6.796;2022-12-26T00:48:21;132.25;;;30.38;;
55202;SDS011;41077;52.956;6.796;2022-12-26T00:50:46;174.75;;;37.50;;
55202;SDS011;41077;52.956;6.796;2022-12-26T00:53:12;199.85;;;41.13;;
55202;SDS011;41077;52.956;6.796;2022-12-26T00:55:38;170.23;;;35.05;;
55202;SDS011;41077;52.956;6.796;2022-12-26T00:58:04;156.07;;;35.95;;
55202;SDS011;41077;52.956;6.796;2022-12-26T01:00:30;251.18;;;44.95;;
55202;SDS011;41077;52.956;6.796;2022-12-26T01:02:56;262.10;;;47.40;;
55202;SDS011;41077;52.956;6.796;2022-12-26T01:05:22;128.98;;;34.53;;
55202;SDS011;41077;52.956;6.796;2022-12-26T01:07:48;200.40;;;37.90;;
55202;SDS011;41077;52.956;6.796;2022-12-26T01:10:14;165.27;;;38.58;;
55202;SDS011;41077;52.956;6.796;2022-12-26T01:12:40;151.32;;;35.50;;
55202;SDS011;41077;52.956;6.796;2022-12-26T01:15:06;103.75;;;31.50;;
55202;SDS011;41077;52.956;6.796;2022-12-26T01:17:32;99.68;;;31.33;;
55202;SDS011;41077;52.956;6.796;2022-12-26T01:19:58;96.45;;;30.13;;
55202;SDS011;41077;52.956;6.796;2022-12-26T01:22:24;89.72;;;28.80;;
55202;SDS011;41077;52.956;6.796;2022-12-26T01:24:54;96.72;;;30.45;;
55202;SDS011;41077;52.956;6.796;2022-12-26T01:27:21;108.18;;;31.92;;
55202;SDS011;41077;52.956;6.796;2022-12-26T01:29:47;68.22;;;27.88;;
55202;SDS011;41077;52.956;6.796;2022-12-26T01:32:13;124.95;;;35.20;;
55202;SDS011;41077;52.956;6.796;2022-12-26T01:34:39;62.38;;;26.38;;
55202;SDS011;41077;52.956;6.796;2022-12-26T01:37:05;94.70;;;31.88;;
55202;SDS011;41077;52.956;6.796;2022-12-26T01:39:31;98.82;;;31.40;;
55202;SDS011;41077;52.956;6.796;2022-12-26T01:41:57;95.72;;;30.38;;
55202;SDS011;41077;52.956;6.796;2022-12-26T01:47:19;63.10;;;25.33;;
55202;SDS011;41077;52.956;6.796;2022-12-26T01:49:52;63.38;;;26.38;;
55202;SDS011;41077;52.956;6.796;2022-12-26T01:52:29;87.22;;;28.05;;
55202;SDS011;41077;52.956;6.796;2022-12-26T01:55:02;82.38;;;25.77;;
55202;SDS011;41077;52.956;6.796;2022-12-26T01:57:30;62.53;;;25.42;;
55202;SDS011;41077;52.956;6.796;2022-12-26T02:00:01;79.75;;;26.92;;
55202;SDS011;41077;52.956;6.796;2022-12-26T02:02:28;71.85;;;23.40;;
55202;SDS011;41077;52.956;6.796;2022-12-26T02:04:54;66.90;;;23.98;;
55202;SDS011;41077;52.956;6.796;2022-12-26T02:10:10;61.03;;;22.42;;
55202;SDS011;41077;52.956;6.796;2022-12-26T02:12:41;59.92;;;21.40;;
55202;SDS011;41077;52.956;6.796;2022-12-26T02:15:09;62.30;;;22.05;;
55202;SDS011;41077;52.956;6.796;2022-12-26T02:17:39;54.08;;;25.95;;
55202;SDS011;41077;52.956;6.796;2022-12-26T02:20:16;45.65;;;20.50;;
55202;SDS011;41077;52.956;6.796;2022-12-26T02:25:47;49.30;;;20.27;;
55202;SDS011;41077;52.956;6.796;2022-12-26T02:39:55;47.22;;;19.85;;
55202;SDS011;41077;52.956;6.796;2022-12-26T02:42:38;53.80;;;21.02;;
55202;SDS011;41077;52.956;6.796;2022-12-26T02:45:37;42.67;;;19.80;;
55202;SDS011;41077;52.956;6.796;2022-12-26T02:51:10;42.30;;;20.08;;
55202;SDS011;41077;52.956;6.796;2022-12-26T02:54:20;50.30;;;21.17;;
55202;SDS011;41077;52.956;6.796;2022-12-26T02:57:18;47.40;;;22.08;;
55202;SDS011;41077;52.956;6.796;2022-12-26T03:00:10;58.70;;;23.25;;
55202;SDS011;41077;52.956;6.796;2022-12-26T03:05:56;48.08;;;23.00;;
55202;SDS011;41077;52.956;6.796;2022-12-26T03:08:58;49.78;;;24.17;;
55202;SDS011;41077;52.956;6.796;2022-12-26T03:11:47;42.88;;;23.45;;
55202;SDS011;41077;52.956;6.796;2022-12-26T03:14:37;51.13;;;24.48;;
55202;SDS011;41077;52.956;6.796;2022-12-26T03:17:09;48.03;;;25.30;;
55202;SDS011;41077;52.956;6.796;2022-12-26T03:20:05;43.88;;;25.25;;
55202;SDS011;41077;52.956;6.796;2022-12-26T03:25:04;49.92;;;25.13;;
55202;SDS011;41077;52.956;6.796;2022-12-26T03:27:52;49.90;;;25.85;;
55202;SDS011;41077;52.956;6.796;2022-12-26T03:30:18;51.20;;;26.80;;
55202;SDS011;41077;52.956;6.796;2022-12-26T03:33:02;53.03;;;26.35;;
55202;SDS011;41077;52.956;6.796;2022-12-26T03:35:30;54.13;;;27.30;;
55202;SDS011;41077;52.956;6.796;2022-12-26T03:38:06;61.05;;;29.63;;
55202;SDS011;41077;52.956;6.796;2022-12-26T03:49:50;62.20;;;31.73;;
55202;SDS011;41077;52.956;6.796;2022-12-26T03:52:44;62.38;;;31.10;;
55202;SDS011;41077;52.956;6.796;2022-12-26T03:55:56;61.60;;;29.65;;
55202;SDS011;41077;52.956;6.796;2022-12-26T03:59:00;64.95;;;31.30;;
55202;SDS011;41077;52.956;6.796;2022-12-26T04:01:51;65.43;;;32.17;;
55202;SDS011;41077;52.956;6.796;2022-12-26T04:04:39;81.30;;;35.65;;
55202;SDS011;41077;52.956;6.796;2022-12-26T04:07:27;72.47;;;32.88;;
55202;SDS011;41077;52.956;6.796;2022-12-26T04:10:22;78.18;;;35.22;;
55202;SDS011;41077;52.956;6.796;2022-12-26T04:13:38;79.85;;;36.58;;
55202;SDS011;41077;52.956;6.796;2022-12-26T04:16:50;65.88;;;32.92;;
55202;SDS011;41077;52.956;6.796;2022-12-26T04:22:44;71.43;;;33.08;;
55202;SDS011;41077;52.956;6.796;2022-12-26T04:25:39;67.57;;;30.88;;
55202;SDS011;41077;52.956;6.796;2022-12-26T04:28:29;73.25;;;32.38;;
55202;SDS011;41077;52.956;6.796;2022-12-26T04:31:28;71.97;;;33.88;;
55202;SDS011;41077;52.956;6.796;2022-12-26T04:34:21;71.00;;;33.83;;
55202;SDS011;41077;52.956;6.796;2022-12-26T04:37:16;68.15;;;33.92;;
55202;SDS011;41077;52.956;6.796;2022-12-26T04:40:06;69.80;;;34.47;;
55202;SDS011;41077;52.956;6.796;2022-12-26T04:42:54;63.25;;;31.20;;
55202;SDS011;41077;52.956;6.796;2022-12-26T04:45:39;68.30;;;34.05;;
55202;SDS011;41077;52.956;6.796;2022-12-26T04:48:06;68.75;;;34.25;;
55202;SDS011;41077;52.956;6.796;2022-12-26T04:50:50;67.13;;;32.95;;
55202;SDS011;41077;52.956;6.796;2022-12-26T04:53:17;60.55;;;30.95;;
55202;SDS011;41077;52.956;6.796;2022-12-26T04:55:44;58.25;;;32.28;;
55202;SDS011;41077;52.956;6.796;2022-12-26T04:58:10;63.53;;;32.40;;
55202;SDS011;41077;52.956;6.796;2022-12-26T05:00:36;72.72;;;33.83;;
55202;SDS011;41077;52.956;6.796;2022-12-26T05:03:01;64.53;;;30.42;;
55202;SDS011;41077;52.956;6.796;2022-12-26T05:05:46;56.38;;;30.77;;
55202;SDS011;41077;52.956;6.796;2022-12-26T05:08:40;60.97;;;29.80;;
55202;SDS011;41077;52.956;6.796;2022-12-26T05:11:27;52.30;;;29.60;;
55202;SDS011;41077;52.956;6.796;2022-12-26T05:13:55;57.50;;;28.65;;
55202;SDS011;41077;52.956;6.796;2022-12-26T05:16:21;55.20;;;32.42;;
55202;SDS011;41077;52.956;6.796;2022-12-26T05:19:10;52.08;;;28.98;;
55202;SDS011;41077;52.956;6.796;2022-12-26T05:21:59;42.67;;;29.80;;
55202;SDS011;41077;52.956;6.796;2022-12-26T05:24:44;44.72;;;26.92;;
55202;SDS011;41077;52.956;6.796;2022-12-26T05:27:39;51.67;;;37.53;;
55202;SDS011;41077;52.956;6.796;2022-12-26T05:30:26;45.70;;;28.77;;
55202;SDS011;41077;52.956;6.796;2022-12-26T05:32:52;43.40;;;25.88;;
55202;SDS011;41077;52.956;6.796;2022-12-26T05:35:36;41.65;;;24.45;;
55202;SDS011;41077;52.956;6.796;2022-12-26T05:38:03;37.50;;;25.30;;
55202;SDS011;41077;52.956;6.796;2022-12-26T05:40:29;44.45;;;24.80;;
55202;SDS011;41077;52.956;6.796;2022-12-26T05:42:55;46.67;;;36.58;;
55202;SDS011;41077;52.956;6.796;2022-12-26T05:45:20;49.92;;;26.88;;
55202;SDS011;41077;52.956;6.796;2022-12-26T05:47:46;41.45;;;25.45;;
55202;SDS011;41077;52.956;6.796;2022-12-26T05:50:12;38.20;;;25.50;;
55202;SDS011;41077;52.956;6.796;2022-12-26T05:52:37;36.25;;;25.35;;
55202;SDS011;41077;52.956;6.796;2022-12-26T05:55:03;42.03;;;27.30;;
55202;SDS011;41077;52.956;6.796;2022-12-26T05:57:29;39.80;;;26.75;;
55202;SDS011;41077;52.956;6.796;2022-12-26T05:59:55;33.67;;;22.75;;
55202;SDS011;41077;52.956;6.796;2022-12-26T06:02:20;37.00;;;23.88;;
55202;SDS011;41077;52.956;6.796;2022-12-26T06:04:46;38.50;;;23.80;;
55202;SDS011;41077;52.956;6.796;2022-12-26T06:07:12;36.72;;;22.77;;
55202;SDS011;41077;52.956;6.796;2022-12-26T06:09:37;37.17;;;24.85;;
55202;SDS011;41077;52.956;6.796;2022-12-26T06:12:03;38.10;;;23.83;;
55202;SDS011;41077;52.956;6.796;2022-12-26T06:14:29;34.28;;;24.88;;
55202;SDS011;41077;52.956;6.796;2022-12-26T06:16:54;40.55;;;24.02;;
55202;SDS011;41077;52.956;6.796;2022-12-26T06:19:20;38.13;;;25.25;;
55202;SDS011;41077;52.956;6.796;2022-12-26T06:21:46;38.08;;;24.08;;
55202;SDS011;41077;52.956;6.796;2022-12-26T06:24:11;42.88;;;24.50;;
55202;SDS011;41077;52.956;6.796;2022-12-26T06:26:38;40.28;;;25.98;;
55202;SDS011;41077;52.956;6.796;2022-12-26T06:29:04;37.97;;;24.90;;
55202;SDS011;41077;52.956;6.796;2022-12-26T06:31:30;41.90;;;25.83;;
55202;SDS011;41077;52.956;6.796;2022-12-26T06:33:56;36.47;;;26.02;;
55202;SDS011;41077;52.956;6.796;2022-12-26T06:36:23;39.38;;;24.92;;
55202;SDS011;41077;52.956;6.796;2022-12-26T06:38:50;37.08;;;25.45;;
55202;SDS011;41077;52.956;6.796;2022-12-26T06:41:17;38.03;;;25.40;;
55202;SDS011;41077;52.956;6.796;2022-12-26T06:43:44;37.22;;;24.15;;
55202;SDS011;41077;52.956;6.796;2022-12-26T06:46:12;38.20;;;24.23;;
55202;SDS011;41077;52.956;6.796;2022-12-26T06:48:42;41.03;;;29.35;;
55202;SDS011;41077;52.956;6.796;2022-12-26T06:51:09;35.95;;;24.13;;
55202;SDS011;41077;52.956;6.796;2022-12-26T06:53:40;36.10;;;23.77;;
55202;SDS011;41077;52.956;6.796;2022-12-26T06:56:07;34.10;;;25.83;;
55202;SDS011;41077;52.956;6.796;2022-12-26T06:58:35;43.97;;;29.58;;
55202;SDS011;41077;52.956;6.796;2022-12-26T07:01:08;37.60;;;26.42;;
55202;SDS011;41077;52.956;6.796;2022-12-26T07:03:36;43.72;;;37.05;;
55202;SDS011;41077;52.956;6.796;2022-12-26T07:06:05;34.50;;;20.85;;
55202;SDS011;41077;52.956;6.796;2022-12-26T07:08:36;33.28;;;21.27;;
55202;SDS011;41077;52.956;6.796;2022-12-26T07:11:01;33.58;;;22.67;;
55202;SDS011;41077;52.956;6.796;2022-12-26T07:13:27;30.85;;;21.42;;
55202;SDS011;41077;52.956;6.796;2022-12-26T07:15:53;30.42;;;22.05;;
55202;SDS011;41077;52.956;6.796;2022-12-26T07:18:22;28.48;;;21.20;;
55202;SDS011;41077;52.956;6.796;2022-12-26T07:20:48;35.10;;;22.30;;
55202;SDS011;41077;52.956;6.796;2022-12-26T07:23:14;28.30;;;20.83;;
55202;SDS011;41077;52.956;6.796;2022-12-26T07:25:39;31.13;;;18.95;;
55202;SDS011;41077;52.956;6.796;2022-12-26T07:28:05;24.35;;;19.00;;
55202;SDS011;41077;52.956;6.796;2022-12-26T07:30:31;27.58;;;19.88;;
55202;SDS011;41077;52.956;6.796;2022-12-26T07:32:56;28.58;;;17.27;;
55202;SDS011;41077;52.956;6.796;2022-12-26T07:35:22;26.05;;;23.52;;
55202;SDS011;41077;52.956;6.796;2022-12-26T07:37:48;30.63;;;17.83;;
55202;SDS011;41077;52.956;6.796;2022-12-26T07:40:13;26.35;;;18.75;;
55202;SDS011;41077;52.956;6.796;2022-12-26T07:42:39;28.17;;;23.10;;
55202;SDS011;41077;52.956;6.796;2022-12-26T07:45:05;35.33;;;22.15;;
55202;SDS011;41077;52.956;6.796;2022-12-26T07:47:31;27.52;;;20.08;;
55202;SDS011;41077;52.956;6.796;2022-12-26T07:49:57;28.70;;;21.40;;
55202;SDS011;41077;52.956;6.796;2022-12-26T07:52:22;55.20;;;50.13;;
55202;SDS011;41077;52.956;6.796;2022-12-26T07:54:48;25.88;;;17.27;;
55202;SDS011;41077;52.956;6.796;2022-12-26T07:57:13;31.50;;;19.38;;
55202;SDS011;41077;52.956;6.796;2022-12-26T07:59:39;27.17;;;20.83;;
55202;SDS011;41077;52.956;6.796;2022-12-26T08:02:05;31.25;;;20.30;;
55202;SDS011;41077;52.956;6.796;2022-12-26T08:04:31;26.15;;;19.45;;
55202;SDS011;41077;52.956;6.796;2022-12-26T08:06:57;33.38;;;20.63;;
55202;SDS011;41077;52.956;6.796;2022-12-26T08:09:23;32.90;;;23.65;;
55202;SDS011;41077;52.956;6.796;2022-12-26T08:11:48;27.88;;;21.60;;
55202;SDS011;41077;52.956;6.796;2022-12-26T08:14:14;29.60;;;18.48;;
55202;SDS011;41077;52.956;6.796;2022-12-26T08:16:41;24.45;;;21.17;;
55202;SDS011;41077;52.956;6.796;2022-12-26T08:19:07;25.25;;;17.10;;
55202;SDS011;41077;52.956;6.796;2022-12-26T08:21:34;27.33;;;20.20;;
55202;SDS011;41077;52.956;6.796;2022-12-26T08:24:00;23.92;;;17.05;;
55202;SDS011;41077;52.956;6.796;2022-12-26T08:26:26;23.90;;;19.30;;
55202;SDS011;41077;52.956;6.796;2022-12-26T08:28:51;29.63;;;26.45;;
55202;SDS011;41077;52.956;6.796;2022-12-26T08:31:20;25.85;;;21.42;;
55202;SDS011;41077;52.956;6.796;2022-12-26T08:33:46;25.70;;;16.25;;
55202;SDS011;41077;52.956;6.796;2022-12-26T08:36:12;24.95;;;18.17;;
55202;SDS011;41077;52.956;6.796;2022-12-26T08:38:41;23.45;;;16.75;;
55202;SDS011;41077;52.956;6.796;2022-12-26T08:41:07;23.10;;;16.17;;
55202;SDS011;41077;52.956;6.796;2022-12-26T08:43:33;23.98;;;16.95;;
55202;SDS011;41077;52.956;6.796;2022-12-26T08:46:03;23.20;;;15.63;;
55202;SDS011;41077;52.956;6.796;2022-12-26T08:48:31;20.52;;;14.98;;
55202;SDS011;41077;52.956;6.796;2022-12-26T08:50:57;23.88;;;15.30;;
55202;SDS011;41077;52.956;6.796;2022-12-26T08:53:25;21.73;;;14.55;;
55202;SDS011;41077;52.956;6.796;2022-12-26T08:55:53;26.08;;;16.38;;
55202;SDS011;41077;52.956;6.796;2022-12-26T08:58:19;22.42;;;14.02;;
55202;SDS011;41077;52.956;6.796;2022-12-26T09:00:45;19.38;;;13.93;;
55202;SDS011;41077;52.956;6.796;2022-12-26T09:03:11;21.48;;;15.30;;
55202;SDS011;41077;52.956;6.796;2022-12-26T09:05:37;23.08;;;16.13;;
55202;SDS011;41077;52.956;6.796;2022-12-26T09:08:03;23.20;;;17.83;;
55202;SDS011;41077;52.956;6.796;2022-12-26T09:10:30;22.70;;;20.70;;
55202;SDS011;41077;52.956;6.796;2022-12-26T09:12:56;18.38;;;13.57;;
55202;SDS011;41077;52.956;6.796;2022-12-26T09:15:21;17.23;;;12.68;;
55202;SDS011;41077;52.956;6.796;2022-12-26T09:17:47;18.83;;;13.02;;
55202;SDS011;41077;52.956;6.796;2022-12-26T09:20:13;15.85;;;13.75;;
55202;SDS011;41077;52.956;6.796;2022-12-26T09:22:38;22.08;;;13.63;;
55202;SDS011;41077;52.956;6.796;2022-12-26T09:25:19;18.90;;;12.68;;
55202;SDS011;41077;52.956;6.796;2022-12-26T09:27:47;17.77;;;14.05;;
55202;SDS011;41077;52.956;6.796;2022-12-26T09:30:14;19.58;;;16.83;;
55202;SDS011;41077;52.956;6.796;2022-12-26T09:32:40;13.63;;;10.63;;
55202;SDS011;41077;52.956;6.796;2022-12-26T09:35:06;17.67;;;13.27;;
55202;SDS011;41077;52.956;6.796;2022-12-26T09:37:32;42.30;;;39.05;;
55202;SDS011;41077;52.956;6.796;2022-12-26T09:39:58;17.92;;;10.13;;
55202;SDS011;41077;52.956;6.796;2022-12-26T09:45:23;14.27;;;12.98;;
55202;SDS011;41077;52.956;6.796;2022-12-26T09:48:26;20.15;;;12.90;;
55202;SDS011;41077;52.956;6.796;2022-12-26T09:50:57;13.80;;;8.75;;
55202;SDS011;41077;52.956;6.796;2022-12-26T09:53:30;33.72;;;31.38;;
55202;SDS011;41077;52.956;6.796;2022-12-26T09:56:04;16.15;;;9.90;;
55202;SDS011;41077;52.956;6.796;2022-12-26T09:58:41;12.73;;;10.93;;
55202;SDS011;41077;52.956;6.796;2022-12-26T10:01:17;11.32;;;9.52;;
55202;SDS011;41077;52.956;6.796;2022-12-26T10:03:48;13.38;;;9.93;;
55202;SDS011;41077;52.956;6.796;2022-12-26T10:06:45;12.35;;;11.15;;
55202;SDS011;41077;52.956;6.796;2022-12-26T10:17:04;10.10;;;7.40;;
55202;SDS011;41077;52.956;6.796;2022-12-26T10:22:18;35.58;;;32.40;;
55202;SDS011;41077;52.956;6.796;2022-12-26T10:25:02;23.13;;;14.40;;
55202;SDS011;41077;52.956;6.796;2022-12-26T10:27:46;18.17;;;12.80;;
55202;SDS011;41077;52.956;6.796;2022-12-26T10:30:17;15.15;;;9.02;;
55202;SDS011;41077;52.956;6.796;2022-12-26T10:32:53;16.55;;;9.10;;
55202;SDS011;41077;52.956;6.796;2022-12-26T10:35:37;14.20;;;9.35;;
55202;SDS011;41077;52.956;6.796;2022-12-26T10:40:40;18.38;;;14.18;;
55202;SDS011;41077;52.956;6.796;2022-12-26T10:48:37;13.90;;;10.55;;
55202;SDS011;41077;52.956;6.796;2022-12-26T10:51:03;14.00;;;8.43;;
55202;SDS011;41077;52.956;6.796;2022-12-26T10:53:29;31.13;;;23.42;;
55202;SDS011;41077;52.956;6.796;2022-12-26T10:55:55;16.92;;;8.63;;
55202;SDS011;41077;52.956;6.796;2022-12-26T10:58:25;22.73;;;20.80;;
55202;SDS011;41077;52.956;6.796;2022-12-26T11:00:55;16.27;;;11.13;;
55202;SDS011;41077;52.956;6.796;2022-12-26T11:03:20;12.85;;;8.23;;
55202;SDS011;41077;52.956;6.796;2022-12-26T11:05:47;13.70;;;10.48;;
55202;SDS011;41077;52.956;6.796;2022-12-26T11:10:46;18.45;;;9.38;;
55202;SDS011;41077;52.956;6.796;2022-12-26T11:13:34;11.45;;;6.90;;
55202;SDS011;41077;52.956;6.796;2022-12-26T11:16:04;19.08;;;8.05;;
55202;SDS011;41077;52.956;6.796;2022-12-26T11:18:36;12.45;;;9.07;;
55202;SDS011;41077;52.956;6.796;2022-12-26T11:21:18;12.07;;;7.32;;
55202;SDS011;41077;52.956;6.796;2022-12-26T11:23:47;10.68;;;7.07;;
55202;SDS011;41077;52.956;6.796;2022-12-26T11:26:23;11.45;;;9.00;;
55202;SDS011;41077;52.956;6.796;2022-12-26T11:31:35;12.48;;;5.22;;
55202;SDS011;41077;52.956;6.796;2022-12-26T11:34:06;23.88;;;21.08;;
55202;SDS011;41077;52.956;6.796;2022-12-26T11:36:34;14.27;;;8.05;;
55202;SDS011;41077;52.956;6.796;2022-12-26T11:39:03;20.98;;;8.93;;
55202;SDS011;41077;52.956;6.796;2022-12-26T11:41:35;15.82;;;13.85;;
55202;SDS011;41077;52.956;6.796;2022-12-26T11:46:40;14.23;;;11.95;;
55202;SDS011;41077;52.956;6.796;2022-12-26T11:49:31;11.48;;;7.70;;
55202;SDS011;41077;52.956;6.796;2022-12-26T11:52:00;9.38;;;6.82;;
55202;SDS011;41077;52.956;6.796;2022-12-26T11:54:48;12.85;;;11.60;;
55202;SDS011;41077;52.956;6.796;2022-12-26T11:57:18;14.38;;;10.70;;
55202;SDS011;41077;52.956;6.796;2022-12-26T11:59:46;20.05;;;18.63;;
55202;SDS011;41077;52.956;6.796;2022-12-26T12:02:17;18.30;;;16.52;;
55202;SDS011;41077;52.956;6.796;2022-12-26T12:04:47;13.13;;;10.85;;
55202;SDS011;41077;52.956;6.796;2022-12-26T12:09:44;12.23;;;10.25;;
55202;SDS011;41077;52.956;6.796;2022-12-26T12:12:43;16.75;;;8.98;;
55202;SDS011;41077;52.956;6.796;2022-12-26T12:15:30;10.65;;;8.77;;
55202;SDS011;41077;52.956;6.796;2022-12-26T12:23:22;12.05;;;8.98;;
55202;SDS011;41077;52.956;6.796;2022-12-26T12:31:42;23.45;;;11.70;;
55202;SDS011;41077;52.956;6.796;2022-12-26T12:40:01;17.42;;;7.85;;
55202;SDS011;41077;52.956;6.796;2022-12-26T12:48:20;12.68;;;10.43;;
55202;SDS011;41077;52.956;6.796;2022-12-26T12:56:44;18.13;;;8.10;;
55202;SDS011;41077;52.956;6.796;2022-12-26T12:59:40;16.08;;;6.68;;
55202;SDS011;41077;52.956;6.796;2022-12-26T13:02:19;16.77;;;6.93;;
55202;SDS011;41077;52.956;6.796;2022-12-26T13:04:58;13.38;;;7.07;;
55202;SDS011;41077;52.956;6.796;2022-12-26T13:07:35;23.52;;;8.25;;
55202;SDS011;41077;52.956;6.796;2022-12-26T13:10:05;16.13;;;9.90;;
55202;SDS011;41077;52.956;6.796;2022-12-26T13:12:45;18.63;;;9.27;;
55202;SDS011;41077;52.956;6.796;2022-12-26T13:15:20;30.00;;;27.17;;
55202;SDS011;41077;52.956;6.796;2022-12-26T13:17:57;360.40;;;232.45;;
55202;SDS011;41077;52.956;6.796;2022-12-26T13:23:05;247.35;;;233.88;;
55202;SDS011;41077;52.956;6.796;2022-12-26T13:26:18;214.57;;;203.57;;
55202;SDS011;41077;52.956;6.796;2022-12-26T13:31:41;263.50;;;250.50;;
55202;SDS011;41077;52.956;6.796;2022-12-26T13:34:10;317.65;;;301.08;;
55202;SDS011;41077;52.956;6.796;2022-12-26T13:36:47;253.00;;;239.68;;
55202;SDS011;41077;52.956;6.796;2022-12-26T13:41:57;235.10;;;219.88;;
55202;SDS011;41077;52.956;6.796;2022-12-26T13:44:45;206.18;;;194.70;;
55202;SDS011;41077;52.956;6.796;2022-12-26T13:56:13;127.10;;;120.13;;
55202;SDS011;41077;52.956;6.796;2022-12-26T13:59:09;111.65;;;105.28;;
55202;SDS011;41077;52.956;6.796;2022-12-26T14:15:26;78.63;;;73.43;;
55202;SDS011;41077;52.956;6.796;2022-12-26T14:26:39;679.10;;;630.92;;
55202;SDS011;41077;52.956;6.796;2022-12-26T14:35:01;752.60;;;698.00;;
55202;SDS011;41077;52.956;6.796;2022-12-26T14:40:27;676.88;;;632.67;;
55202;SDS011;41077;52.956;6.796;2022-12-26T14:48:02;850.85;;;780.95;;
55202;SDS011;41077;52.956;6.796;2022-12-26T14:50:48;799.90;;;740.53;;
55202;SDS011;41077;52.956;6.796;2022-12-26T15:08:52;732.58;;;683.90;;
55202;SDS011;41077;52.956;6.796;2022-12-26T15:25:34;743.90;;;693.83;;
55202;SDS011;41077;52.956;6.796;2022-12-26T15:33:37;575.60;;;531.58;;
55202;SDS011;41077;52.956;6.796;2022-12-26T15:38:56;459.60;;;420.50;;
55202;SDS011;41077;52.956;6.796;2022-12-26T15:57:19;162.18;;;148.38;;
55202;SDS011;41077;52.956;6.796;2022-12-26T16:11:41;449.40;;;387.23;;
55202;SDS011;41077;52.956;6.796;2022-12-26T16:14:09;417.15;;;361.48;;
55202;SDS011;41077;52.956;6.796;2022-12-26T16:16:47;1999.90;;;999.90;;
55202;SDS011;41077;52.956;6.796;2022-12-26T16:19:23;611.50;;;529.30;;
55202;SDS011;41077;52.956;6.796;2022-12-26T16:21:54;536.92;;;438.98;;
55202;SDS011;41077;52.956;6.796;2022-12-26T16:24:43;559.92;;;426.00;;
55202;SDS011;41077;52.956;6.796;2022-12-26T16:27:12;1633.75;;;844.45;;
55202;SDS011;41077;52.956;6.796;2022-12-26T16:29:44;477.35;;;405.48;;
55202;SDS011;41077;52.956;6.796;2022-12-26T16:32:15;1999.90;;;999.90;;
55202;SDS011;41077;52.956;6.796;2022-12-26T16:34:45;1670.45;;;870.22;;
55202;SDS011;41077;52.956;6.796;2022-12-26T16:37:22;572.85;;;415.20;;
55202;SDS011;41077;52.956;6.796;2022-12-26T16:42:37;550.38;;;478.58;;
55202;SDS011;41077;52.956;6.796;2022-12-26T16:45:11;432.45;;;368.95;;
55202;SDS011;41077;52.956;6.796;2022-12-26T16:47:42;453.52;;;393.35;;
55202;SDS011;41077;52.956;6.796;2022-12-26T16:50:17;1596.28;;;828.78;;
55202;SDS011;41077;52.956;6.796;2022-12-26T16:52:44;472.15;;;387.35;;
55202;SDS011;41077;52.956;6.796;2022-12-26T16:57:55;427.70;;;366.92;;
55202;SDS011;41077;52.956;6.796;2022-12-26T17:00:24;553.55;;;478.27;;
55202;SDS011;41077;52.956;6.796;2022-12-26T17:02:52;563.83;;;493.40;;
55202;SDS011;41077;52.956;6.796;2022-12-26T17:05:22;558.88;;;499.13;;
55202;SDS011;41077;52.956;6.796;2022-12-26T17:07:51;642.28;;;521.10;;
55202;SDS011;41077;52.956;6.796;2022-12-26T17:10:23;590.85;;;521.10;;
55202;SDS011;41077;52.956;6.796;2022-12-26T17:13:14;699.90;;;559.17;;
55202;SDS011;41077;52.956;6.796;2022-12-26T17:15:52;502.10;;;386.17;;
55202;SDS011;41077;52.956;6.796;2022-12-26T17:18:35;565.70;;;393.80;;
55202;SDS011;41077;52.956;6.796;2022-12-26T17:26:34;869.30;;;685.63;;
55202;SDS011;41077;52.956;6.796;2022-12-26T17:29:02;672.35;;;467.63;;
55202;SDS011;41077;52.956;6.796;2022-12-26T17:31:36;691.05;;;529.50;;
55202;SDS011;41077;52.956;6.796;2022-12-26T17:34:11;1999.90;;;999.90;;
55202;SDS011;41077;52.956;6.796;2022-12-26T17:36:40;609.50;;;377.45;;
55202;SDS011;41077;52.956;6.796;2022-12-26T17:39:19;559.83;;;427.13;;
55202;SDS011;41077;52.956;6.796;2022-12-26T17:41:48;520.95;;;399.95;;
55202;SDS011;41077;52.956;6.796;2022-12-26T17:44:40;1650.53;;;873.75;;
55202;SDS011;41077;52.956;6.796;2022-12-26T17:47:19;1999.90;;;999.90;;
55202;SDS011;41077;52.956;6.796;2022-12-26T17:49:50;1999.90;;;999.90;;
55202;SDS011;41077;52.956;6.796;2022-12-26T17:52:18;1999.90;;;999.90;;
55202;SDS011;41077;52.956;6.796;2022-12-26T17:54:47;1999.90;;;999.90;;
55202;SDS011;41077;52.956;6.796;2022-12-26T17:57:14;1610.60;;;834.60;;
55202;SDS011;41077;52.956;6.796;2022-12-26T17:59:46;1618.45;;;841.92;;
55202;SDS011;41077;52.956;6.796;2022-12-26T18:02:12;1648.63;;;872.17;;
55202;SDS011;41077;52.956;6.796;2022-12-26T18:04:38;821.70;;;601.45;;
55202;SDS011;41077;52.956;6.796;2022-12-26T18:07:04;1999.90;;;999.90;;
55202;SDS011;41077;52.956;6.796;2022-12-26T18:09:29;500.40;;;359.15;;
55202;SDS011;41077;52.956;6.796;2022-12-26T18:11:55;1621.15;;;847.28;;
55202;SDS011;41077;52.956;6.796;2022-12-26T18:14:21;1670.97;;;878.72;;
55202;SDS011;41077;52.956;6.796;2022-12-26T18:16:47;646.50;;;440.23;;
55202;SDS011;41077;52.956;6.796;2022-12-26T18:19:16;1576.90;;;809.25;;
55202;SDS011;41077;52.956;6.796;2022-12-26T18:21:43;1999.90;;;999.90;;
55202;SDS011;41077;52.956;6.796;2022-12-26T18:24:09;1673.55;;;885.15;;
55202;SDS011;41077;52.956;6.796;2022-12-26T18:26:35;1999.90;;;999.90;;
55202;SDS011;41077;52.956;6.796;2022-12-26T18:29:01;1999.90;;;999.90;;
55202;SDS011;41077;52.956;6.796;2022-12-26T18:31:27;1598.68;;;822.15;;
55202;SDS011;41077;52.956;6.796;2022-12-26T18:33:53;1999.90;;;999.90;;
55202;SDS011;41077;52.956;6.796;2022-12-26T18:36:20;1999.90;;;999.90;;
55202;SDS011;41077;52.956;6.796;2022-12-26T18:38:51;1999.90;;;999.90;;